createdAt,value
2023-05-25T00:02:15.982Z,12.39
2023-05-25T00:07:17.014Z,12.12
2023-05-25T00:12:18.096Z,11.80
2023-05-25T00:17:19.254Z,11.85
2023-05-25T00:22:21.393Z,11.89
2023-05-25T00:27:20.548Z,11.94
2023-05-25T00:32:21.642Z,12.05
2023-05-25T00:37:23.678Z,12.05
2023-05-25T00:42:22.735Z,12.12
2023-05-25T00:47:25.806Z,12.09
2023-05-25T00:52:25.828Z,12.06
2023-05-25T00:57:24.860Z,12.04
2023-05-25T01:02:25.931Z,11.94
2023-05-25T01:07:27.023Z,11.96
2023-05-25T01:12:28.035Z,12.01
2023-05-25T01:17:29.185Z,11.90
2023-05-25T01:22:30.269Z,11.80
2023-05-25T01:27:30.309Z,11.96
2023-05-25T01:32:31.599Z,11.97
2023-05-25T01:37:32.636Z,12.11
2023-05-25T01:42:33.718Z,11.99
2023-05-25T01:47:34.870Z,11.99
2023-05-25T01:52:35.912Z,11.80
2023-05-25T01:57:39.026Z,11.75
2023-05-25T02:02:38.189Z,11.83
2023-05-25T02:07:39.238Z,11.86
2023-05-25T02:12:40.293Z,11.94
2023-05-25T02:17:41.437Z,11.96
2023-05-25T02:22:43.457Z,12.05
2023-05-25T02:27:42.472Z,12.02
2023-05-25T02:32:44.578Z,11.82
2023-05-25T02:37:43.656Z,11.50
2023-05-25T02:42:46.706Z,11.47
2023-05-25T02:47:45.899Z,11.61
2023-05-25T02:52:46.961Z,11.78
2023-05-25T02:57:48.073Z,11.77
2023-05-25T03:02:50.173Z,11.54
2023-05-25T03:07:49.291Z,11.47
2023-05-25T03:12:51.337Z,11.62
2023-05-25T03:17:50.517Z,11.67
2023-05-25T03:22:51.610Z,11.71
2023-05-25T03:27:53.628Z,11.70
2023-05-25T03:32:52.803Z,11.72
2023-05-25T03:37:53.798Z,11.80
2023-05-25T03:42:54.886Z,11.65
2023-05-25T03:47:57.006Z,11.64
2023-05-25T03:52:56.213Z,11.71
2023-05-25T03:57:57.263Z,11.83
2023-05-25T04:03:03.409Z,12.08
2023-05-25T04:07:58.496Z,12.16
2023-05-25T04:12:59.616Z,12.15
2023-05-25T04:18:00.734Z,12.20
2023-05-25T04:23:01.809Z,12.31
2023-05-25T04:28:03.901Z,12.42
2023-05-25T04:33:03.211Z,12.34
2023-05-25T04:38:04.312Z,12.51
2023-05-25T04:43:05.397Z,12.74
2023-05-25T04:48:06.504Z,12.70
2023-05-25T04:53:07.516Z,12.79
2023-05-25T04:58:08.616Z,12.99
2023-05-25T05:03:15.840Z,13.15
2023-05-25T05:08:10.945Z,13.33
2023-05-25T05:13:11.988Z,13.32
2023-05-25T05:18:14.046Z,13.04
2023-05-25T05:23:14.092Z,13.07
2023-05-25T05:28:14.129Z,13.52
2023-05-25T05:33:13.425Z,13.92
2023-05-25T05:38:14.530Z,14.01
2023-05-25T05:43:15.632Z,13.88
2023-05-25T05:48:17.709Z,14.12
2023-05-25T05:53:18.719Z,14.39
2023-05-25T05:58:17.755Z,15.03
2023-05-25T06:03:18.878Z,15.33
2023-05-25T06:08:19.964Z,15.05
2023-05-25T06:13:21.995Z,14.29
2023-05-25T06:18:21.083Z,14.47
2023-05-25T06:23:22.135Z,14.67
2023-05-25T06:28:23.179Z,14.37
2023-05-25T06:33:26.206Z,14.20
2023-05-25T06:38:26.339Z,14.13
2023-05-25T06:43:25.309Z,13.96
2023-05-25T06:48:26.503Z,14.38
2023-05-25T06:53:29.504Z,15.02
2023-05-25T06:58:28.505Z,15.39
2023-05-25T07:03:29.611Z,15.97
2023-05-25T07:08:32.622Z,16.52
2023-05-25T07:13:31.668Z,16.09
2023-05-25T07:18:32.768Z,16.63
2023-05-25T07:23:33.762Z,16.63
2023-05-25T07:28:33.791Z,16.48
2023-05-25T07:33:34.818Z,15.97
2023-05-25T07:38:35.863Z,15.57
2023-05-25T07:43:38.888Z,16.25
2023-05-25T07:48:37.924Z,16.73
2023-05-25T07:53:39.969Z,17.23
2023-05-25T07:58:39.142Z,16.62
2023-05-25T08:08:41.211Z,16.55
2023-05-25T08:13:42.250Z,16.73
2023-05-25T08:18:43.377Z,16.81
2023-05-25T08:23:44.408Z,16.95
2023-05-25T08:28:45.440Z,16.70
2023-05-25T08:33:47.483Z,16.58
2023-05-25T08:38:47.534Z,17.17
2023-05-25T08:43:48.564Z,17.71
2023-05-25T08:48:47.738Z,17.62
2023-05-25T08:53:48.818Z,17.25
2023-05-25T08:58:49.839Z,16.93
2023-05-25T09:03:51.969Z,17.36
2023-05-25T09:08:55.080Z,17.08
2023-05-25T09:13:52.152Z,17.70
2023-05-25T09:18:53.305Z,17.76
2023-05-25T09:23:54.460Z,17.76
2023-05-25T09:28:55.927Z,17.73
2023-05-25T09:33:56.940Z,17.82
2023-05-25T09:38:58.313Z,18.00
2023-05-25T09:44:09.547Z,17.88
2023-05-25T09:48:57.596Z,18.33
2023-05-25T09:53:58.638Z,18.34
2023-05-25T09:59:00.691Z,18.15
2023-05-25T10:04:10.291Z,18.73
2023-05-25T10:09:00.648Z,18.73
2023-05-25T10:14:00.701Z,18.68
2023-05-25T10:19:00.752Z,19.08
2023-05-25T10:24:00.049Z,19.35
2023-05-25T10:29:01.105Z,19.24
2023-05-25T10:34:03.176Z,19.20
2023-05-25T10:39:03.346Z,19.55
2023-05-25T10:44:02.316Z,19.88
2023-05-25T10:49:03.327Z,19.63
2023-05-25T10:54:04.358Z,20.24
2023-05-25T10:59:05.602Z,20.21
2023-05-25T11:04:07.815Z,20.43
2023-05-25T11:09:06.859Z,20.43
2023-05-25T11:14:07.889Z,20.74
2023-05-25T11:19:08.925Z,20.43
2023-05-25T11:24:09.970Z,20.39
2023-05-25T11:29:10.987Z,20.53
2023-05-25T11:34:12.152Z,20.80
2023-05-25T11:39:20.937Z,20.98
2023-05-25T11:44:13.048Z,20.84
2023-05-25T11:49:14.081Z,20.72
2023-05-25T11:54:17.144Z,21.30
2023-05-25T11:59:17.177Z,21.39
2023-05-25T12:04:16.341Z,21.46
2023-05-25T12:09:17.421Z,21.23
2023-05-25T12:14:18.492Z,21.27
2023-05-25T12:19:20.534Z,21.63
2023-05-25T12:24:20.580Z,21.60
2023-05-25T12:29:19.624Z,22.04
2023-05-25T12:34:20.843Z,22.17
2023-05-25T12:39:24.476Z,22.13
2023-05-25T12:44:23.091Z,21.98
2023-05-25T12:49:23.088Z,22.50
2023-05-25T12:54:23.116Z,22.56
2023-05-25T12:59:22.220Z,22.97
2023-05-25T13:04:27.143Z,22.27
2023-05-25T13:09:29.599Z,22.06
2023-05-25T13:14:26.668Z,22.23
2023-05-25T13:19:25.765Z,22.19
2023-05-25T13:24:26.799Z,22.14
2023-05-25T13:29:28.845Z,22.84
2023-05-25T13:34:28.888Z,22.80
2023-05-25T13:39:28.940Z,22.38
2023-05-25T13:44:29.003Z,22.75
2023-05-25T13:49:28.052Z,22.29
2023-05-25T13:54:30.113Z,22.37
2023-05-25T13:59:29.152Z,22.64
2023-05-25T14:04:31.218Z,22.43
2023-05-25T14:09:30.288Z,23.15
2023-05-25T14:14:33.049Z,22.74
2023-05-25T14:19:33.192Z,22.49
2023-05-25T14:24:33.215Z,23.20
2023-05-25T14:29:32.261Z,22.54
2023-05-25T14:34:33.325Z,22.94
2023-05-25T14:39:35.357Z,22.17
2023-05-25T14:44:34.422Z,22.97
2023-05-25T14:49:35.457Z,22.96
2023-05-25T14:54:36.491Z,22.50
2023-05-25T14:59:38.532Z,22.78
2023-05-25T15:04:37.597Z,22.80
2023-05-25T15:09:38.638Z,22.69
2023-05-25T15:14:39.688Z,22.43
2023-05-25T15:19:41.744Z,21.92
2023-05-25T15:24:40.800Z,22.20
2023-05-25T15:29:41.820Z,22.04
2023-05-25T15:34:42.916Z,22.12
2023-05-25T15:39:43.942Z,21.66
2023-05-25T15:44:45.986Z,21.71
2023-05-25T15:49:45.039Z,21.71
2023-05-25T15:54:47.099Z,21.60
2023-05-25T15:59:46.124Z,21.57
2023-05-25T16:04:48.160Z,21.51
2023-05-25T16:09:47.213Z,21.24
2023-05-25T16:14:49.268Z,21.24
2023-05-25T16:19:48.309Z,21.16
2023-05-25T16:24:48.346Z,21.06
2023-05-25T16:29:50.376Z,21.21
2023-05-25T16:34:50.434Z,20.95
2023-05-25T16:39:51.477Z,20.90
2023-05-25T16:44:49.514Z,20.90
2023-05-25T16:49:50.650Z,20.91
2023-05-25T16:54:51.726Z,20.91
2023-05-25T16:59:54.834Z,20.91
2023-05-25T17:04:53.820Z,21.11
2023-05-25T17:09:55.868Z,20.87
2023-05-25T17:14:54.952Z,20.74
2023-05-25T17:19:56.185Z,20.65
2023-05-25T17:24:57.377Z,20.72
2023-05-25T17:29:58.523Z,20.77
2023-05-25T17:35:01.594Z,20.99
2023-05-25T17:40:00.696Z,20.89
2023-05-25T17:45:02.794Z,20.87
2023-05-25T17:50:01.862Z,20.81
2023-05-25T17:55:04.010Z,20.71
2023-05-25T18:00:03.316Z,20.68
2023-05-25T18:05:04.782Z,20.74
2023-05-25T18:10:04.091Z,20.76
2023-05-25T18:15:06.523Z,20.58
2023-05-25T18:20:05.967Z,20.56
2023-05-25T18:25:08.482Z,20.51
2023-05-25T18:30:08.665Z,20.50
2023-05-25T18:35:08.242Z,20.50
2023-05-25T18:40:08.261Z,20.47
2023-05-25T18:45:07.501Z,20.33
2023-05-25T18:50:10.525Z,20.28
2023-05-25T18:55:09.762Z,20.35
2023-05-25T19:00:10.796Z,20.25
2023-05-25T19:05:12.007Z,20.20
2023-05-25T19:10:14.021Z,20.21
2023-05-25T19:15:13.124Z,20.21
2023-05-25T19:20:15.387Z,20.30
2023-05-25T19:25:14.484Z,20.18
2023-05-25T19:30:16.731Z,20.06
2023-05-25T19:35:16.913Z,20.13
2023-05-25T19:40:16.075Z,20.08
2023-05-25T19:45:18.263Z,20.02
2023-05-25T19:50:18.417Z,19.94
2023-05-25T19:55:17.665Z,19.53
2023-05-25T20:00:26.003Z,19.38
2023-05-25T20:05:19.096Z,19.33
2023-05-25T20:10:20.460Z,19.13
2023-05-25T20:15:22.645Z,18.87
2023-05-25T20:20:21.863Z,18.90
2023-05-25T20:25:22.903Z,18.65
2023-05-25T20:30:23.971Z,18.64
2023-05-25T20:35:26.008Z,18.31
2023-05-25T20:40:26.043Z,18.36
2023-05-25T20:45:26.105Z,18.37
2023-05-25T20:50:26.153Z,18.13
2023-05-25T20:55:25.250Z,17.95
2023-05-25T21:00:27.531Z,17.97
2023-05-25T21:05:27.576Z,17.79
2023-05-25T21:10:27.639Z,17.46
2023-05-25T21:15:27.690Z,17.46
2023-05-25T21:20:28.776Z,17.38
2023-05-25T21:25:27.954Z,17.35
2023-05-25T21:30:29.139Z,17.40
2023-05-25T21:35:31.163Z,17.14
2023-05-25T21:40:30.212Z,17.06
2023-05-25T21:45:31.412Z,16.77
2023-05-25T21:50:32.455Z,16.71
2023-05-25T21:55:33.645Z,16.60
2023-05-25T22:00:35.538Z,16.45
2023-05-25T22:05:39.825Z,16.27
2023-05-25T22:10:36.038Z,16.14
2023-05-25T22:15:35.045Z,16.12
2023-05-25T22:20:36.346Z,16.15
2023-05-25T22:25:39.348Z,16.18
2023-05-25T22:30:39.493Z,16.01
2023-05-25T22:35:39.524Z,16.04
2023-05-25T22:40:39.599Z,15.74
2023-05-25T22:45:38.737Z,15.67
2023-05-25T22:50:39.752Z,15.64
2023-05-25T22:55:41.893Z,15.60
2023-05-25T23:00:40.900Z,15.46
2023-05-25T23:05:41.959Z,15.38
2023-05-25T23:10:43.001Z,15.19
2023-05-25T23:15:44.547Z,15.17
2023-05-25T23:20:43.879Z,15.21
2023-05-25T23:25:46.155Z,15.08
2023-05-25T23:30:45.264Z,15.23
2023-05-25T23:35:47.447Z,15.11
2023-05-25T23:40:47.518Z,15.03
2023-05-25T23:45:46.829Z,14.95
2023-05-25T23:50:47.097Z,14.84
2023-05-25T23:55:46.494Z,14.69
